createdAt,value
2019-03-13T00:00:54.204Z,99110.34
2019-03-13T00:03:24.248Z,99123.45
2019-03-13T00:05:54.285Z,99092.98
2019-03-13T00:08:24.340Z,99122.95
2019-03-13T00:10:54.592Z,99131.23
2019-03-13T00:13:24.692Z,99139.48
2019-03-13T00:15:54.751Z,99150.47
2019-03-13T00:18:24.767Z,99148.03
2019-03-13T00:20:54.847Z,99181.18
2019-03-13T00:23:24.838Z,99169.15
2019-03-13T00:25:54.870Z,99180.06
2019-03-13T00:28:24.898Z,99204.10
2019-03-13T00:30:54.927Z,99223.75
2019-03-13T00:33:26.757Z,99217.97
2019-03-13T00:35:56.744Z,99229.89
2019-03-13T00:38:26.811Z,99248.79
2019-03-13T00:40:56.952Z,99263.00
2019-03-13T00:43:26.982Z,99279.83
2019-03-13T00:45:57.112Z,99302.10
2019-03-13T00:48:27.144Z,99318.23
2019-03-13T00:50:57.248Z,99332.97
2019-03-13T00:53:30.114Z,99334.51
2019-03-13T00:56:00.126Z,99327.78
2019-03-13T00:58:30.174Z,99331.23
2019-03-13T01:01:19.228Z,99323.50
2019-03-13T01:04:08.242Z,99339.78
2019-03-13T01:06:41.419Z,99355.52
2019-03-13T01:09:11.568Z,99354.63
2019-03-13T01:11:41.603Z,99374.84
2019-03-13T01:14:13.195Z,99376.53
2019-03-13T01:16:43.254Z,99366.38
2019-03-13T01:19:13.690Z,99369.02
2019-03-13T01:21:44.220Z,99368.26
2019-03-13T01:24:14.518Z,99385.48
2019-03-13T01:26:44.647Z,99396.49
2019-03-13T01:29:14.769Z,99412.09
2019-03-13T01:31:55.309Z,99420.78
2019-03-13T01:34:34.629Z,99442.64
2019-03-13T01:37:04.781Z,99436.25
2019-03-13T01:39:35.310Z,99452.70
2019-03-13T01:42:05.343Z,99443.97
2019-03-13T01:44:35.353Z,99450.97
2019-03-13T01:47:05.478Z,99452.73
2019-03-13T01:49:35.485Z,99454.72
2019-03-13T01:52:05.512Z,99464.14
2019-03-13T01:54:35.636Z,99463.78
2019-03-13T01:57:05.668Z,99468.86
2019-03-13T01:59:35.761Z,99475.80
2019-03-13T02:02:10.803Z,99469.41
2019-03-13T02:04:40.845Z,99474.73
2019-03-13T02:07:10.875Z,99469.48
2019-03-13T02:09:40.999Z,99472.78
2019-03-13T02:12:11.077Z,99478.58
2019-03-13T02:14:41.169Z,99473.56
2019-03-13T02:17:11.219Z,99478.50
2019-03-13T02:19:41.242Z,99476.97
2019-03-13T02:22:11.309Z,99477.64
2019-03-13T02:24:41.387Z,99483.76
2019-03-13T02:27:11.493Z,99478.86
2019-03-13T02:29:41.555Z,99481.72
2019-03-13T02:32:11.588Z,99478.38
2019-03-13T02:34:41.583Z,99484.63
2019-03-13T02:37:11.638Z,99475.48
2019-03-13T02:39:41.815Z,99484.97
2019-03-13T02:42:11.975Z,99473.84
2019-03-13T02:44:42.055Z,99474.78
2019-03-13T02:47:12.078Z,99474.86
2019-03-13T02:49:42.131Z,99474.82
2019-03-13T02:52:12.194Z,99485.00
2019-03-13T02:54:42.226Z,99479.56
2019-03-13T02:57:13.280Z,99473.44
2019-03-13T02:59:43.278Z,99476.98
2019-03-13T03:02:21.811Z,99480.39
2019-03-13T03:04:51.827Z,99478.58
2019-03-13T03:07:21.844Z,99479.22
2019-03-13T03:09:51.952Z,99478.98
2019-03-13T03:12:22.058Z,99476.83
2019-03-13T03:15:06.822Z,99475.91
2019-03-13T03:17:37.179Z,99470.97
2019-03-13T03:20:10.082Z,99473.88
2019-03-13T03:22:40.161Z,99478.16
2019-03-13T03:25:10.783Z,99480.94
2019-03-13T03:27:40.798Z,99484.23
2019-03-13T03:30:14.118Z,99472.31
2019-03-13T03:32:44.194Z,99485.13
2019-03-13T03:35:14.275Z,99479.05
2019-03-13T03:37:44.352Z,99486.47
2019-03-13T03:40:15.070Z,99486.45
2019-03-13T03:42:45.105Z,99489.36
2019-03-13T03:45:15.218Z,99491.72
2019-03-13T03:47:45.353Z,99493.13
2019-03-13T03:50:15.574Z,99495.59
2019-03-13T03:52:45.645Z,99490.47
2019-03-13T03:55:15.852Z,99497.84
2019-03-13T03:57:45.964Z,99492.89
2019-03-13T04:00:16.186Z,99499.41
2019-03-13T04:02:46.191Z,99492.63
2019-03-13T04:05:16.402Z,99493.80
2019-03-13T04:07:46.480Z,99501.05
2019-03-13T04:10:16.639Z,99499.95
2019-03-13T04:12:46.768Z,99495.17
2019-03-13T04:15:16.869Z,99492.94
2019-03-13T04:17:46.872Z,99498.31
2019-03-13T04:20:16.935Z,99484.03
2019-03-13T04:22:47.265Z,99494.50
2019-03-13T04:25:31.557Z,99490.13
2019-03-13T04:28:01.627Z,99490.90
2019-03-13T04:30:31.687Z,99492.78
2019-03-13T04:33:01.740Z,99494.86
2019-03-13T04:35:32.324Z,99479.67
2019-03-13T04:38:02.867Z,99486.23
2019-03-13T04:40:32.924Z,99474.55
2019-03-13T04:43:03.142Z,99472.03
2019-03-13T04:45:33.166Z,99472.11
2019-03-13T04:48:03.255Z,99481.68
2019-03-13T04:50:33.394Z,99467.45
2019-03-13T04:53:03.484Z,99466.50
2019-03-13T04:55:33.629Z,99465.09
2019-03-13T04:58:03.932Z,99453.48
2019-03-13T05:00:34.023Z,99470.08
2019-03-13T05:03:06.673Z,99451.59
2019-03-13T05:05:47.461Z,99452.94
2019-03-13T05:08:50.887Z,99451.98
2019-03-13T05:11:20.894Z,99453.28
2019-03-13T05:13:51.016Z,99442.97
2019-03-13T05:16:21.164Z,99441.12
2019-03-13T05:18:51.254Z,99443.31
2019-03-13T05:21:21.320Z,99425.41
2019-03-13T05:23:51.623Z,99423.30
2019-03-13T05:26:21.646Z,99419.88
2019-03-13T05:28:51.636Z,99434.78
2019-03-13T05:31:21.655Z,99436.03
2019-03-13T05:33:51.644Z,99441.64
2019-03-13T05:36:21.683Z,99437.20
2019-03-13T05:38:53.392Z,99428.70
2019-03-13T05:41:23.472Z,99419.17
2019-03-13T05:43:53.508Z,99448.85
2019-03-13T05:46:23.554Z,99436.59
2019-03-13T05:48:53.616Z,99434.30
2019-03-13T05:51:23.646Z,99430.90
2019-03-13T05:53:53.643Z,99429.84
2019-03-13T05:56:23.668Z,99426.30
2019-03-13T05:58:53.684Z,99407.25
2019-03-13T06:01:23.738Z,99432.08
2019-03-13T06:03:53.804Z,99420.86
2019-03-13T06:06:24.096Z,99429.64
2019-03-13T06:08:54.151Z,99424.70
2019-03-13T06:11:24.196Z,99425.39
2019-03-13T06:13:54.285Z,99433.63
2019-03-13T06:16:24.350Z,99425.27
2019-03-13T06:18:54.336Z,99428.02
2019-03-13T06:21:24.381Z,99429.54
2019-03-13T06:23:54.395Z,99435.00
2019-03-13T06:26:25.715Z,99431.55
2019-03-13T06:28:55.789Z,99437.16
2019-03-13T06:31:25.826Z,99433.54
2019-03-13T06:33:55.857Z,99437.63
2019-03-13T06:36:25.921Z,99433.34
2019-03-13T06:38:55.968Z,99419.78
2019-03-13T06:41:26.075Z,99437.75
2019-03-13T06:43:56.178Z,99428.75
2019-03-13T06:46:26.211Z,99441.86
2019-03-13T06:48:56.195Z,99437.69
2019-03-13T06:51:26.235Z,99439.30
2019-03-13T06:53:56.249Z,99441.69
2019-03-13T06:56:26.693Z,99432.80
2019-03-13T06:59:05.194Z,99422.09
2019-03-13T07:01:54.193Z,99414.80
2019-03-13T07:04:49.221Z,99422.36
2019-03-13T07:07:27.780Z,99420.78
2019-03-13T07:10:05.495Z,99422.19
2019-03-13T07:13:03.474Z,99423.11
2019-03-13T07:15:41.779Z,99417.84
2019-03-13T07:18:33.925Z,99415.20
2019-03-13T07:21:31.808Z,99409.38
2019-03-13T07:24:27.019Z,99414.72
2019-03-13T07:27:02.975Z,99406.81
2019-03-13T07:29:55.020Z,99404.93
2019-03-13T07:32:41.513Z,99403.17
2019-03-13T07:35:33.539Z,99419.55
2019-03-13T07:38:34.871Z,99411.78
2019-03-13T07:41:14.695Z,99420.98
2019-03-13T07:43:56.806Z,99415.98
2019-03-13T07:46:44.675Z,99404.84
2019-03-13T07:49:32.543Z,99411.78
2019-03-13T07:52:33.558Z,99412.85
2019-03-13T07:55:22.497Z,99404.72
2019-03-13T07:58:14.557Z,99407.84
2019-03-13T08:01:12.951Z,99407.66
2019-03-13T08:03:51.228Z,99401.28
2019-03-13T08:06:40.223Z,99402.70
2019-03-13T08:09:27.923Z,99403.59
2019-03-13T08:12:10.019Z,99399.64
2019-03-13T08:15:08.305Z,99404.77
2019-03-13T08:18:00.060Z,99411.37
2019-03-13T08:20:54.831Z,99401.35
2019-03-13T08:23:52.837Z,99388.77
2019-03-13T08:26:33.337Z,99386.98
2019-03-13T08:29:15.699Z,99380.72
2019-03-13T08:32:01.131Z,99387.62
2019-03-13T08:34:48.999Z,99367.36
2019-03-13T08:37:42.086Z,99383.02
2019-03-13T08:40:17.081Z,99374.66
2019-03-13T08:43:06.142Z,99382.25
2019-03-13T08:45:48.319Z,99373.78
2019-03-13T08:48:37.315Z,99373.08
2019-03-13T08:51:21.449Z,99347.06
2019-03-13T08:54:28.939Z,99354.67
2019-03-13T08:57:13.506Z,99355.73
2019-03-13T09:00:05.585Z,99365.80
2019-03-13T09:02:53.982Z,99347.41
2019-03-13T09:05:41.717Z,99351.16
2019-03-13T09:08:48.354Z,99349.30
2019-03-13T09:11:29.914Z,99362.97
2019-03-13T09:14:21.823Z,99347.53
2019-03-13T09:17:29.280Z,99354.71
2019-03-13T09:20:18.256Z,99351.04
2019-03-13T09:23:10.286Z,99339.75
2019-03-13T09:26:03.206Z,99358.19
2019-03-13T09:28:51.052Z,99348.81
2019-03-13T09:31:52.412Z,99342.45
2019-03-13T09:34:45.532Z,99343.28
2019-03-13T09:37:30.507Z,99330.61
2019-03-13T09:40:16.794Z,99327.41
2019-03-13T09:42:59.306Z,99338.61
2019-03-13T09:45:43.469Z,99336.26
2019-03-13T09:48:29.684Z,99320.05
2019-03-13T09:51:21.893Z,99332.38
2019-03-13T09:54:02.569Z,99335.11
2019-03-13T09:56:51.526Z,99332.41
2019-03-13T09:59:43.517Z,99346.89
2019-03-13T10:02:25.993Z,99334.42
2019-03-13T10:05:20.766Z,99334.84
2019-03-13T10:07:56.244Z,99333.17
2019-03-13T10:10:51.530Z,99334.27
2019-03-13T10:13:36.647Z,99327.19
2019-03-13T10:16:25.984Z,99339.52
2019-03-13T10:19:15.088Z,99313.60
2019-03-13T10:22:13.188Z,99330.89
2019-03-13T10:24:56.874Z,99310.36
2019-03-13T10:27:48.950Z,99317.63
2019-03-13T10:30:35.468Z,99311.20
2019-03-13T10:33:20.017Z,99321.11
2019-03-13T10:36:05.134Z,99319.03
2019-03-13T10:38:55.104Z,99314.72
2019-03-13T10:41:36.906Z,99308.54
2019-03-13T10:44:17.165Z,99314.48
2019-03-13T10:46:56.615Z,99292.39
2019-03-13T10:49:33.715Z,99298.95
2019-03-13T10:52:12.018Z,99304.16
2019-03-13T10:54:55.021Z,99303.34
2019-03-13T10:57:42.660Z,99295.32
2019-03-13T11:00:31.051Z,99301.78
2019-03-13T11:03:20.068Z,99305.48
2019-03-13T11:06:18.090Z,99306.23
2019-03-13T11:09:02.747Z,99307.59
2019-03-13T11:11:52.100Z,99298.83
2019-03-13T11:14:39.734Z,99281.78
2019-03-13T11:17:31.921Z,99288.47
2019-03-13T11:20:24.106Z,99279.38
2019-03-13T11:23:22.924Z,99280.62
2019-03-13T11:26:30.056Z,99267.53
2019-03-13T11:29:24.950Z,99285.69
2019-03-13T11:32:32.135Z,99275.71
2019-03-13T11:35:39.207Z,99280.92
2019-03-13T11:38:26.871Z,99272.29
2019-03-13T11:41:15.939Z,99290.56
2019-03-13T11:44:03.040Z,99294.02
2019-03-13T11:47:04.283Z,99292.74
2019-03-13T11:49:53.820Z,99296.39
2019-03-13T11:52:54.932Z,99283.59
2019-03-13T11:55:44.743Z,99287.77
2019-03-13T11:58:26.731Z,99282.75
2019-03-13T12:01:27.961Z,99290.61
2019-03-13T12:04:17.669Z,99275.56
2019-03-13T12:07:15.923Z,99281.92
2019-03-13T12:09:53.839Z,99267.08
2019-03-13T12:12:55.017Z,99268.96
2019-03-13T12:15:30.953Z,99266.91
2019-03-13T12:18:06.372Z,99272.33
2019-03-13T12:20:55.432Z,99275.81
2019-03-13T12:23:44.457Z,99261.91
2019-03-13T12:26:42.361Z,99250.91
2019-03-13T12:29:25.523Z,99248.23
2019-03-13T12:32:12.327Z,99255.72
2019-03-13T12:35:00.655Z,99240.17
2019-03-13T12:37:40.903Z,99255.24
2019-03-13T12:40:20.442Z,99241.33
2019-03-13T12:42:59.899Z,99248.23
2019-03-13T12:45:43.867Z,99240.45
2019-03-13T12:48:45.707Z,99235.65
2019-03-13T12:51:23.773Z,99222.20
2019-03-13T12:54:18.803Z,99242.24
2019-03-13T12:57:10.791Z,99224.88
2019-03-13T13:00:08.795Z,99229.05
2019-03-13T13:02:56.905Z,99230.22
2019-03-13T13:05:44.427Z,99230.44
2019-03-13T13:08:36.128Z,99234.77
2019-03-13T13:11:19.880Z,99217.97
2019-03-13T13:14:24.240Z,99216.60
2019-03-13T13:17:19.129Z,99223.05
2019-03-13T13:19:49.182Z,99209.69
2019-03-13T13:22:19.267Z,99227.08
2019-03-13T13:24:49.319Z,99210.19
2019-03-13T13:27:19.312Z,99206.20
2019-03-13T13:29:49.430Z,99215.34
2019-03-13T13:32:19.538Z,99210.55
2019-03-13T13:34:50.038Z,99211.56
2019-03-13T13:37:20.068Z,99210.23
2019-03-13T13:39:50.053Z,99176.23
2019-03-13T13:42:20.197Z,99185.56
2019-03-13T13:44:50.200Z,99197.88
2019-03-13T13:47:20.245Z,99187.74
2019-03-13T13:49:59.586Z,99178.98
2019-03-13T13:52:22.054Z,99179.48
2019-03-13T13:54:52.187Z,99187.53
2019-03-13T13:57:22.270Z,99176.55
2019-03-13T13:59:52.311Z,99177.34
2019-03-13T14:02:22.702Z,99167.92
2019-03-13T14:04:52.790Z,99167.93
2019-03-13T14:07:22.846Z,99173.09
2019-03-13T14:09:52.857Z,99175.45
2019-03-13T14:12:22.989Z,99167.75
2019-03-13T14:14:53.044Z,99153.81
2019-03-13T14:17:23.073Z,99167.97
2019-03-13T14:19:53.101Z,99167.12
2019-03-13T14:22:23.144Z,99166.38
2019-03-13T14:24:53.167Z,99168.51
2019-03-13T14:27:23.246Z,99164.70
2019-03-13T14:29:53.220Z,99160.72
2019-03-13T14:32:23.237Z,99161.28
2019-03-13T14:34:53.286Z,99166.09
2019-03-13T14:37:23.433Z,99169.30
2019-03-13T14:39:53.434Z,99154.61
2019-03-13T14:42:23.474Z,99167.63
2019-03-13T14:44:53.506Z,99161.73
2019-03-13T14:47:23.528Z,99165.77
2019-03-13T14:49:53.583Z,99169.27
2019-03-13T14:52:23.731Z,99167.11
2019-03-13T14:54:53.713Z,99173.84
2019-03-13T14:57:23.850Z,99165.27
2019-03-13T14:59:53.933Z,99164.17
2019-03-13T15:02:23.999Z,99161.20
2019-03-13T15:04:53.990Z,99176.22
2019-03-13T15:07:26.538Z,99171.70
2019-03-13T15:09:57.060Z,99170.59
2019-03-13T15:12:27.230Z,99175.66
2019-03-13T15:14:57.217Z,99162.28
2019-03-13T15:17:27.226Z,99164.67
2019-03-13T15:19:57.427Z,99167.14
2019-03-13T15:22:27.513Z,99169.83
2019-03-13T15:24:57.509Z,99163.60
2019-03-13T15:27:27.598Z,99161.75
2019-03-13T15:29:57.700Z,99152.41
2019-03-13T15:32:27.793Z,99161.98
2019-03-13T15:34:57.857Z,99161.45
2019-03-13T15:37:27.921Z,99148.43
2019-03-13T15:39:57.940Z,99150.75
2019-03-13T15:42:28.003Z,99146.28
2019-03-13T15:44:58.065Z,99145.16
2019-03-13T15:47:28.114Z,99132.83
2019-03-13T15:49:58.132Z,99145.94
2019-03-13T15:52:28.553Z,99155.45
2019-03-13T15:54:58.728Z,99143.80
2019-03-13T15:57:29.240Z,99153.14
2019-03-13T15:59:59.254Z,99147.27
2019-03-13T16:02:29.241Z,99157.11
2019-03-13T16:04:59.282Z,99152.21
2019-03-13T16:07:29.358Z,99159.96
2019-03-13T16:10:02.766Z,99153.41
2019-03-13T16:12:31.119Z,99144.13
2019-03-13T16:15:03.165Z,99146.48
2019-03-13T16:17:33.172Z,99144.81
2019-03-13T16:20:03.201Z,99153.91
2019-03-13T16:22:33.214Z,99152.64
2019-03-13T16:25:03.241Z,99152.48
2019-03-13T16:27:33.260Z,99156.55
2019-03-13T16:30:03.486Z,99158.02
2019-03-13T16:32:43.541Z,99143.25
2019-03-13T16:35:05.518Z,99142.41
2019-03-13T16:37:35.634Z,99145.66
2019-03-13T16:40:06.366Z,99155.61
2019-03-13T16:42:36.544Z,99142.48
2019-03-13T16:45:07.058Z,99143.04
2019-03-13T16:47:37.069Z,99133.39
2019-03-13T16:50:08.461Z,99138.59
2019-03-13T16:52:38.481Z,99136.57
2019-03-13T16:55:10.495Z,99128.83
2019-03-13T16:57:40.586Z,99123.44
2019-03-13T17:00:13.728Z,99128.14
2019-03-13T17:02:43.783Z,99132.30
2019-03-13T17:05:14.039Z,99120.67
2019-03-13T17:07:44.077Z,99126.02
2019-03-13T17:10:15.481Z,99130.27
2019-03-13T17:12:45.584Z,99123.21
2019-03-13T17:15:17.745Z,99147.12
2019-03-13T17:17:47.787Z,99128.42
2019-03-13T17:20:25.885Z,99129.80
2019-03-13T17:22:54.390Z,99122.52
2019-03-13T17:25:24.472Z,99117.77
2019-03-13T17:27:54.634Z,99130.63
2019-03-13T17:30:26.661Z,99128.33
2019-03-13T17:32:58.200Z,99133.34
2019-03-13T17:35:28.223Z,99132.19
2019-03-13T17:37:58.226Z,99126.08
2019-03-13T17:40:28.711Z,99114.55
2019-03-13T17:42:58.925Z,99109.52
2019-03-13T17:45:28.979Z,99093.67
2019-03-13T17:47:59.025Z,99098.49
2019-03-13T17:50:29.057Z,99102.55
2019-03-13T17:52:59.064Z,99094.77
2019-03-13T17:55:29.138Z,99115.11
2019-03-13T17:57:59.156Z,99107.04
2019-03-13T18:00:33.831Z,99108.87
2019-03-13T18:03:03.965Z,99088.86
2019-03-13T18:05:34.002Z,99092.64
2019-03-13T18:08:04.084Z,99090.55
2019-03-13T18:10:34.251Z,99088.84
2019-03-13T18:13:04.333Z,99095.31
2019-03-13T18:15:34.363Z,99100.11
2019-03-13T18:18:06.372Z,99091.56
2019-03-13T18:20:36.460Z,99087.57
2019-03-13T18:23:06.512Z,99093.13
2019-03-13T18:25:36.591Z,99089.32
2019-03-13T18:28:06.613Z,99097.20
2019-03-13T18:30:36.655Z,99100.88
2019-03-13T18:33:07.203Z,99098.86
2019-03-13T18:35:37.287Z,99097.44
2019-03-13T18:38:07.324Z,99110.59
2019-03-13T18:40:37.455Z,99112.91
2019-03-13T18:43:07.583Z,99115.55
2019-03-13T18:45:37.643Z,99120.06
2019-03-13T18:48:07.700Z,99123.78
2019-03-13T18:50:39.241Z,99117.63
2019-03-13T18:53:09.305Z,99126.29
2019-03-13T18:55:39.480Z,99125.11
2019-03-13T18:58:09.495Z,99127.35
2019-03-13T19:00:39.601Z,99145.25
2019-03-13T19:03:09.715Z,99132.77
2019-03-13T19:05:39.930Z,99131.45
2019-03-13T19:08:09.971Z,99134.21
2019-03-13T19:10:40.181Z,99133.14
2019-03-13T19:13:10.219Z,99129.98
2019-03-13T19:15:40.650Z,99132.33
2019-03-13T19:18:10.691Z,99137.98
2019-03-13T19:20:40.844Z,99131.67
2019-03-13T19:23:13.989Z,99134.66
2019-03-13T19:25:42.648Z,99130.69
2019-03-13T19:28:12.687Z,99140.84
2019-03-13T19:30:42.731Z,99143.88
2019-03-13T19:33:12.822Z,99142.66
2019-03-13T19:35:42.963Z,99144.46
2019-03-13T19:38:13.032Z,99135.34
2019-03-13T19:40:43.182Z,99134.80
2019-03-13T19:43:13.214Z,99144.64
2019-03-13T19:45:43.500Z,99135.56
2019-03-13T19:48:13.573Z,99147.53
2019-03-13T19:50:43.702Z,99143.80
2019-03-13T19:53:13.807Z,99137.73
2019-03-13T19:55:43.977Z,99146.94
2019-03-13T19:58:14.002Z,99135.84
2019-03-13T20:00:44.226Z,99127.71
2019-03-13T20:03:14.426Z,99146.44
2019-03-13T20:05:46.412Z,99139.84
2019-03-13T20:08:16.449Z,99138.30
2019-03-13T20:10:47.181Z,99148.30
2019-03-13T20:13:17.520Z,99148.61
2019-03-13T20:15:47.617Z,99155.04
2019-03-13T20:18:17.934Z,99135.86
2019-03-13T20:20:48.049Z,99147.88
2019-03-13T20:23:18.297Z,99151.78
2019-03-13T20:25:48.561Z,99146.12
2019-03-13T20:28:18.633Z,99149.93
2019-03-13T20:30:48.846Z,99145.14
2019-03-13T20:33:18.972Z,99154.20
2019-03-13T20:35:49.372Z,99151.02
2019-03-13T20:38:19.539Z,99156.02
2019-03-13T20:40:50.339Z,99159.47
2019-03-13T20:43:20.557Z,99174.95
2019-03-13T20:45:50.678Z,99176.32
2019-03-13T20:48:20.818Z,99176.55
2019-03-13T20:50:50.996Z,99181.70
2019-03-13T20:53:21.199Z,99177.59
2019-03-13T20:55:51.276Z,99182.27
2019-03-13T20:58:21.368Z,99181.49
2019-03-13T21:00:51.543Z,99192.90
2019-03-13T21:03:21.693Z,99193.73
2019-03-13T21:05:51.802Z,99195.03
2019-03-13T21:08:21.984Z,99200.89
2019-03-13T21:10:52.041Z,99191.44
2019-03-13T21:13:26.134Z,99211.89
2019-03-13T21:15:56.362Z,99208.90
2019-03-13T21:18:26.553Z,99207.30
2019-03-13T21:20:56.646Z,99211.38
2019-03-13T21:23:26.777Z,99237.32
2019-03-13T21:25:56.952Z,99228.14
2019-03-13T21:28:26.991Z,99231.05
2019-03-13T21:30:57.159Z,99235.12
2019-03-13T21:33:27.157Z,99246.69
2019-03-13T21:35:57.219Z,99253.64
2019-03-13T21:38:27.279Z,99249.62
2019-03-13T21:40:57.670Z,99254.68
2019-03-13T21:43:27.738Z,99254.20
2019-03-13T21:45:57.704Z,99268.86
2019-03-13T21:48:28.088Z,99266.74
2019-03-13T21:50:58.396Z,99278.77
2019-03-13T21:53:28.602Z,99281.03
2019-03-13T21:55:58.696Z,99290.95
2019-03-13T21:58:28.940Z,99286.45
2019-03-13T22:00:59.049Z,99287.69
2019-03-13T22:03:32.402Z,99308.83
2019-03-13T22:06:01.022Z,99307.69
2019-03-13T22:08:31.254Z,99314.02
2019-03-13T22:11:01.266Z,99327.33
2019-03-13T22:13:31.298Z,99322.97
2019-03-13T22:16:01.456Z,99328.97
2019-03-13T22:18:31.668Z,99332.08
2019-03-13T22:21:01.857Z,99344.23
2019-03-13T22:23:32.041Z,99359.95
2019-03-13T22:26:02.023Z,99352.20
2019-03-13T22:28:32.194Z,99352.97
2019-03-13T22:31:02.921Z,99366.18
2019-03-13T22:33:33.216Z,99369.37
2019-03-13T22:36:03.217Z,99365.88
2019-03-13T22:38:33.373Z,99385.30
2019-03-13T22:41:03.463Z,99402.66
2019-03-13T22:43:33.651Z,99402.30
2019-03-13T22:46:03.683Z,99406.27
2019-03-13T22:48:33.856Z,99409.33
2019-03-13T22:51:03.943Z,99414.58
2019-03-13T22:53:34.197Z,99415.25
2019-03-13T22:56:04.324Z,99414.16
2019-03-13T22:58:34.519Z,99425.38
2019-03-13T23:01:12.378Z,99418.55
2019-03-13T23:03:42.518Z,99423.41
2019-03-13T23:06:12.602Z,99426.80
2019-03-13T23:08:42.956Z,99438.98
2019-03-13T23:11:13.074Z,99438.95
2019-03-13T23:13:43.142Z,99443.84
2019-03-13T23:16:13.377Z,99455.75
2019-03-13T23:18:43.758Z,99447.54
2019-03-13T23:21:14.393Z,99451.85
2019-03-13T23:23:44.593Z,99453.15
2019-03-13T23:26:16.407Z,99460.37
2019-03-13T23:28:46.770Z,99479.46
2019-03-13T23:31:16.872Z,99476.86
2019-03-13T23:33:46.997Z,99489.45
2019-03-13T23:36:17.025Z,99492.16
2019-03-13T23:38:47.191Z,99504.17
2019-03-13T23:41:17.269Z,99490.41
2019-03-13T23:43:47.611Z,99507.95
2019-03-13T23:46:17.596Z,99515.47
2019-03-13T23:48:47.818Z,99520.79
2019-03-13T23:51:18.724Z,99524.47
2019-03-13T23:53:48.907Z,99528.43
2019-03-13T23:56:18.927Z,99528.28
2019-03-13T23:58:49.015Z,99526.70
